createdAt,value
2022-11-23T00:01:54.729Z,2.30
2022-11-23T00:04:25.002Z,2.30
2022-11-23T00:06:53.568Z,2.30
2022-11-23T00:09:22.800Z,2.40
2022-11-23T00:11:51.330Z,2.40
2022-11-23T00:14:20.061Z,2.40
2022-11-23T00:16:48.683Z,2.40
2022-11-23T00:19:18.581Z,2.40
2022-11-23T00:21:47.315Z,2.40
2022-11-23T00:24:15.841Z,2.40
2022-11-23T00:26:44.324Z,2.40
2022-11-23T00:29:13.214Z,2.40
2022-11-23T00:31:41.702Z,2.40
2022-11-23T00:34:10.311Z,2.30
2022-11-23T00:36:40.203Z,2.30
2022-11-23T00:39:09.362Z,2.30
2022-11-23T00:41:38.242Z,2.30
2022-11-23T00:44:07.967Z,2.30
2022-11-23T00:46:37.334Z,2.20
2022-11-23T00:49:06.939Z,2.30
2022-11-23T00:51:37.818Z,2.30
2022-11-23T00:54:07.831Z,2.30
2022-11-23T00:56:37.295Z,2.30
2022-11-23T00:59:07.024Z,2.30
2022-11-23T01:01:37.372Z,2.40
2022-11-23T01:04:09.955Z,2.30
2022-11-23T01:06:40.672Z,2.20
2022-11-23T01:09:14.842Z,2.20
2022-11-23T01:11:43.708Z,2.30
2022-11-23T01:14:12.358Z,2.30
2022-11-23T01:16:43.185Z,2.30
2022-11-23T01:19:14.381Z,2.30
2022-11-23T01:21:43.373Z,2.20
2022-11-23T01:24:15.714Z,2.30
2022-11-23T01:26:45.077Z,2.20
2022-11-23T01:29:14.130Z,2.20
2022-11-23T01:31:46.484Z,2.40
2022-11-23T01:34:17.146Z,2.20
2022-11-23T01:36:46.075Z,2.20
2022-11-23T01:39:16.225Z,2.20
2022-11-23T01:41:46.451Z,2.20
2022-11-23T01:44:27.080Z,2.20
2022-11-23T01:46:58.124Z,2.20
2022-11-23T01:49:28.530Z,2.10
2022-11-23T01:52:00.828Z,2.10
2022-11-23T01:54:34.125Z,2.10
2022-11-23T01:57:07.509Z,2.10
2022-11-23T01:59:36.994Z,2.00
2022-11-23T02:02:08.018Z,2.00
2022-11-23T02:04:43.064Z,1.90
2022-11-23T02:07:16.118Z,1.90
2022-11-23T02:09:48.808Z,1.80
2022-11-23T02:12:17.758Z,1.80
2022-11-23T02:14:47.240Z,1.80
2022-11-23T02:17:16.104Z,1.80
2022-11-23T02:19:55.377Z,1.80
2022-11-23T02:22:34.544Z,1.70
2022-11-23T02:25:10.134Z,1.70
2022-11-23T02:27:45.462Z,1.60
2022-11-23T02:30:15.703Z,1.60
2022-11-23T02:32:45.117Z,1.60
2022-11-23T02:35:14.578Z,1.60
2022-11-23T02:37:45.195Z,1.50
2022-11-23T02:40:27.274Z,1.50
2022-11-23T02:42:57.669Z,1.50
2022-11-23T02:45:34.836Z,1.50
2022-11-23T02:48:04.088Z,1.50
2022-11-23T02:50:33.001Z,1.50
2022-11-23T02:53:02.348Z,1.40
2022-11-23T02:55:33.672Z,1.40
2022-11-23T02:58:05.566Z,1.40
2022-11-23T03:00:34.778Z,1.30
2022-11-23T03:03:04.195Z,1.50
2022-11-23T03:05:34.825Z,1.40
2022-11-23T03:08:07.208Z,1.40
2022-11-23T03:10:36.344Z,1.30
2022-11-23T03:13:06.593Z,1.20
2022-11-23T03:15:37.461Z,1.20
2022-11-23T03:18:07.643Z,1.10
2022-11-23T03:20:36.975Z,1.10
2022-11-23T03:23:06.515Z,1.10
2022-11-23T03:25:35.269Z,1.10
2022-11-23T03:28:07.685Z,1.10
2022-11-23T03:30:36.353Z,1.10
2022-11-23T03:33:07.122Z,1.10
2022-11-23T03:35:38.681Z,1.20
2022-11-23T03:38:20.540Z,1.20
2022-11-23T03:40:51.376Z,1.30
2022-11-23T03:43:26.861Z,1.20
2022-11-23T03:45:55.601Z,1.20
2022-11-23T03:48:24.887Z,1.30
2022-11-23T03:50:54.198Z,1.30
2022-11-23T03:53:22.811Z,1.30
2022-11-23T03:55:51.418Z,1.20
2022-11-23T03:58:20.222Z,1.30
2022-11-23T04:00:51.660Z,1.30
2022-11-23T04:03:20.467Z,1.20
2022-11-23T04:06:09.355Z,1.20
2022-11-23T04:09:02.748Z,1.20
2022-11-23T04:11:51.572Z,1.20
2022-11-23T04:14:21.268Z,1.20
2022-11-23T04:16:51.936Z,1.20
2022-11-23T04:19:20.682Z,1.30
2022-11-23T04:21:49.660Z,1.20
2022-11-23T04:24:18.414Z,1.20
2022-11-23T04:26:48.418Z,1.40
2022-11-23T04:29:17.058Z,1.20
2022-11-23T04:31:51.808Z,1.30
2022-11-23T04:34:21.441Z,1.20
2022-11-23T04:36:52.104Z,1.30
2022-11-23T04:39:26.038Z,1.30
2022-11-23T04:42:20.704Z,1.30
2022-11-23T04:44:54.533Z,1.30
2022-11-23T04:47:24.879Z,1.30
2022-11-23T04:49:54.505Z,1.40
2022-11-23T04:52:23.238Z,1.60
2022-11-23T04:54:52.857Z,1.30
2022-11-23T04:57:21.775Z,1.40
2022-11-23T04:59:53.009Z,1.30
2022-11-23T05:02:21.761Z,1.30
2022-11-23T05:05:12.070Z,1.30
2022-11-23T05:07:40.792Z,1.20
2022-11-23T05:10:10.577Z,1.20
2022-11-23T05:12:39.467Z,1.30
2022-11-23T05:15:12.006Z,1.20
2022-11-23T05:17:40.763Z,1.20
2022-11-23T05:20:18.060Z,1.20
2022-11-23T05:22:50.166Z,1.30
2022-11-23T05:25:22.885Z,1.20
2022-11-23T05:28:03.682Z,1.20
2022-11-23T05:30:40.452Z,1.20
2022-11-23T05:33:12.970Z,1.30
2022-11-23T05:35:44.514Z,1.20
2022-11-23T05:38:13.582Z,1.30
2022-11-23T05:40:42.839Z,1.30
2022-11-23T05:43:11.827Z,1.30
2022-11-23T05:45:40.482Z,1.30
2022-11-23T05:48:11.442Z,1.30
2022-11-23T05:50:54.190Z,1.30
2022-11-23T05:53:43.005Z,1.30
2022-11-23T05:56:19.961Z,1.40
2022-11-23T05:59:08.869Z,1.40
2022-11-23T06:01:39.957Z,1.30
2022-11-23T06:04:10.793Z,1.30
2022-11-23T06:06:45.569Z,1.30
2022-11-23T06:09:14.522Z,1.30
2022-11-23T06:11:48.286Z,1.30
2022-11-23T06:14:20.767Z,1.30
2022-11-23T06:16:50.059Z,1.30
2022-11-23T06:19:32.918Z,1.40
2022-11-23T06:22:04.257Z,1.30
2022-11-23T06:24:36.483Z,1.40
2022-11-23T06:27:31.120Z,1.40
2022-11-23T06:30:00.865Z,1.40
2022-11-23T06:32:32.409Z,1.40
2022-11-23T06:35:02.763Z,1.40
2022-11-23T06:37:36.622Z,1.40
2022-11-23T06:40:05.943Z,1.50
2022-11-23T06:42:39.992Z,1.40
2022-11-23T06:45:16.519Z,1.50
2022-11-23T06:47:45.527Z,1.60
2022-11-23T06:50:14.641Z,1.60
2022-11-23T06:52:47.875Z,1.50
2022-11-23T06:55:16.809Z,1.50
2022-11-23T06:57:45.877Z,1.60
2022-11-23T07:00:16.045Z,1.60
2022-11-23T07:02:52.344Z,1.60
2022-11-23T07:05:24.265Z,1.70
2022-11-23T07:07:54.376Z,1.80
2022-11-23T07:10:28.145Z,1.80
2022-11-23T07:13:05.373Z,1.80
2022-11-23T07:15:35.149Z,1.70
2022-11-23T07:18:03.971Z,1.70
2022-11-23T07:20:33.704Z,1.70
2022-11-23T07:23:04.584Z,1.70
2022-11-23T07:25:35.137Z,1.70
2022-11-23T07:28:06.341Z,1.70
2022-11-23T07:30:36.170Z,1.70
2022-11-23T07:33:08.425Z,1.80
2022-11-23T07:35:39.539Z,1.80
2022-11-23T07:38:10.374Z,1.80
2022-11-23T07:40:40.854Z,1.90
2022-11-23T07:43:17.258Z,1.90
2022-11-23T07:45:50.431Z,2.00
2022-11-23T07:48:19.249Z,2.00
2022-11-23T07:50:47.820Z,2.10
2022-11-23T07:53:18.164Z,2.00
2022-11-23T07:55:46.874Z,2.00
2022-11-23T07:58:15.448Z,2.10
2022-11-23T08:00:44.370Z,2.10
2022-11-23T08:03:30.889Z,2.10
2022-11-23T08:06:00.129Z,2.00
2022-11-23T08:08:30.170Z,2.10
2022-11-23T08:10:58.649Z,2.00
2022-11-23T08:13:27.480Z,2.00
2022-11-23T08:15:56.311Z,2.00
2022-11-23T08:18:25.387Z,2.10
2022-11-23T08:20:54.113Z,1.90
2022-11-23T08:23:23.355Z,2.00
2022-11-23T08:25:53.393Z,1.90
2022-11-23T08:28:22.604Z,1.90
2022-11-23T08:30:51.386Z,1.90
2022-11-23T08:33:19.977Z,2.00
2022-11-23T08:35:48.662Z,2.00
2022-11-23T08:38:17.628Z,2.00
2022-11-23T08:40:46.176Z,2.00
2022-11-23T08:43:16.162Z,2.60
2022-11-23T08:45:45.092Z,2.00
2022-11-23T08:48:13.900Z,2.00
2022-11-23T08:50:44.454Z,2.00
2022-11-23T08:53:13.254Z,2.10
2022-11-23T08:55:42.407Z,2.10
2022-11-23T08:58:13.608Z,2.00
2022-11-23T09:00:43.871Z,2.00
2022-11-23T09:03:12.497Z,2.10
2022-11-23T09:05:41.102Z,2.10
2022-11-23T09:08:10.081Z,2.10
2022-11-23T09:10:39.287Z,2.10
2022-11-23T09:13:07.921Z,2.10
2022-11-23T09:15:36.922Z,2.10
2022-11-23T09:18:07.057Z,2.30
2022-11-23T09:20:36.209Z,2.30
2022-11-23T09:23:07.956Z,2.40
2022-11-23T09:25:42.877Z,2.40
2022-11-23T09:28:12.681Z,2.30
2022-11-23T09:30:41.671Z,2.20
2022-11-23T09:33:11.978Z,2.10
2022-11-23T09:35:43.739Z,2.20
2022-11-23T09:38:13.222Z,2.20
2022-11-23T09:40:42.745Z,2.20
2022-11-23T09:43:46.804Z,2.20
2022-11-23T09:46:25.754Z,2.30
2022-11-23T09:49:14.528Z,2.40
2022-11-23T09:51:44.364Z,2.40
2022-11-23T09:54:24.918Z,2.40
2022-11-23T09:57:01.560Z,2.50
2022-11-23T09:59:41.421Z,2.60
2022-11-23T10:02:20.916Z,2.50
2022-11-23T10:04:53.081Z,2.50
2022-11-23T10:07:33.252Z,2.50
2022-11-23T10:10:15.158Z,2.50
2022-11-23T10:12:53.824Z,2.50
2022-11-23T10:15:29.134Z,2.60
2022-11-23T10:18:08.291Z,2.50
2022-11-23T10:20:57.338Z,2.50
2022-11-23T10:23:39.088Z,2.50
2022-11-23T10:26:13.324Z,2.60
2022-11-23T10:28:42.184Z,2.60
2022-11-23T10:31:15.794Z,2.60
2022-11-23T10:33:53.391Z,2.60
2022-11-23T10:36:23.533Z,2.60
2022-11-23T10:38:58.704Z,2.70
2022-11-23T10:41:27.639Z,2.80
2022-11-23T10:44:05.537Z,2.80
2022-11-23T10:46:41.210Z,2.80
2022-11-23T10:49:20.856Z,2.80
2022-11-23T10:51:59.819Z,2.80
2022-11-23T10:54:34.911Z,2.80
2022-11-23T10:57:22.394Z,2.90
2022-11-23T10:59:59.468Z,2.90
2022-11-23T11:02:29.530Z,2.90
2022-11-23T11:05:40.159Z,2.90
2022-11-23T11:08:17.267Z,2.90
2022-11-23T11:10:50.140Z,3.00
2022-11-23T11:13:27.411Z,3.00
2022-11-23T11:15:58.295Z,3.20
2022-11-23T11:18:30.357Z,3.10
2022-11-23T11:21:06.081Z,3.10
2022-11-23T11:23:40.579Z,3.10
2022-11-23T11:26:20.872Z,2.90
2022-11-23T11:28:53.110Z,2.80
2022-11-23T11:31:45.271Z,2.90
2022-11-23T11:34:24.945Z,2.80
2022-11-23T11:37:02.213Z,3.00
2022-11-23T11:39:42.344Z,2.90
2022-11-23T11:42:21.470Z,2.90
2022-11-23T11:44:54.509Z,2.90
2022-11-23T11:47:29.852Z,2.80
2022-11-23T11:50:02.386Z,2.70
2022-11-23T11:52:36.882Z,2.70
2022-11-23T11:55:13.929Z,2.70
2022-11-23T11:57:48.676Z,2.80
2022-11-23T12:00:20.065Z,2.90
2022-11-23T12:03:00.902Z,2.90
2022-11-23T12:05:41.451Z,2.90
2022-11-23T12:08:14.027Z,2.80
2022-11-23T12:10:48.788Z,2.80
2022-11-23T12:13:19.894Z,2.90
2022-11-23T12:15:52.623Z,3.00
2022-11-23T12:18:33.075Z,3.20
2022-11-23T12:21:05.225Z,3.20
2022-11-23T12:23:50.111Z,3.10
2022-11-23T12:26:29.895Z,3.10
2022-11-23T12:29:13.448Z,3.10
2022-11-23T12:31:46.570Z,3.00
2022-11-23T12:34:33.328Z,3.10
2022-11-23T12:37:15.035Z,3.20
2022-11-23T12:40:09.588Z,3.20
2022-11-23T12:42:45.768Z,3.40
2022-11-23T12:45:41.037Z,3.30
2022-11-23T12:48:38.969Z,3.20
2022-11-23T12:51:19.281Z,3.10
2022-11-23T12:53:59.058Z,3.10
2022-11-23T12:56:46.652Z,3.10
2022-11-23T12:59:16.515Z,3.10
2022-11-23T13:01:50.338Z,3.10
2022-11-23T13:04:53.996Z,3.20
2022-11-23T13:07:50.096Z,3.20
2022-11-23T13:10:45.953Z,3.30
2022-11-23T13:13:30.863Z,3.20
2022-11-23T13:16:27.207Z,3.30
2022-11-23T13:19:07.498Z,3.40
2022-11-23T13:21:39.881Z,4.00
2022-11-23T13:24:27.817Z,3.40
2022-11-23T13:27:31.700Z,3.30
2022-11-23T13:30:11.143Z,3.20
2022-11-23T13:33:00.719Z,3.30
2022-11-23T13:35:50.458Z,3.30
2022-11-23T13:38:43.860Z,3.40
2022-11-23T13:41:55.337Z,3.30
2022-11-23T13:44:27.599Z,3.20
2022-11-23T13:47:08.623Z,3.20
2022-11-23T13:49:43.041Z,3.10
2022-11-23T13:52:37.037Z,3.10
2022-11-23T13:55:21.164Z,3.10
2022-11-23T13:58:19.847Z,3.10
2022-11-23T14:00:51.176Z,3.10
2022-11-23T14:04:00.528Z,3.00
2022-11-23T14:06:42.897Z,3.00
2022-11-23T14:09:19.202Z,4.20
2022-11-23T14:12:07.174Z,2.90
2022-11-23T14:14:57.740Z,2.90
2022-11-23T14:17:45.246Z,2.80
2022-11-23T14:20:28.858Z,2.90
2022-11-23T14:23:13.871Z,2.80
2022-11-23T14:25:53.884Z,2.80
2022-11-23T14:28:41.172Z,2.80
2022-11-23T14:31:21.499Z,2.90
2022-11-23T14:33:57.048Z,2.90
2022-11-23T14:36:38.838Z,2.80
2022-11-23T14:39:40.565Z,2.80
2022-11-23T14:42:15.487Z,2.90
2022-11-23T14:44:46.121Z,2.90
2022-11-23T14:47:15.217Z,3.00
2022-11-23T14:49:52.157Z,3.00
2022-11-23T14:52:22.709Z,3.00
2022-11-23T14:54:52.604Z,2.90
2022-11-23T14:57:22.937Z,3.00
2022-11-23T14:59:56.829Z,3.00
2022-11-23T15:02:32.301Z,2.90
2022-11-23T15:05:08.708Z,2.90
2022-11-23T15:07:50.029Z,2.80
2022-11-23T15:10:29.620Z,2.80
2022-11-23T15:12:58.344Z,2.80
2022-11-23T15:15:32.224Z,2.80
2022-11-23T15:18:02.813Z,2.80
2022-11-23T15:20:33.941Z,2.90
2022-11-23T15:23:04.034Z,2.80
2022-11-23T15:25:33.454Z,2.90
2022-11-23T15:28:05.443Z,2.80
2022-11-23T15:30:37.394Z,2.80
2022-11-23T15:33:12.392Z,2.80
2022-11-23T15:35:42.179Z,2.90
2022-11-23T15:38:20.442Z,2.80
2022-11-23T15:40:52.619Z,2.80
2022-11-23T15:43:21.621Z,2.80
2022-11-23T15:46:06.894Z,2.80
2022-11-23T15:48:37.157Z,2.90
2022-11-23T15:51:09.469Z,2.90
2022-11-23T15:53:47.390Z,2.80
2022-11-23T15:56:22.791Z,2.80
2022-11-23T15:58:53.824Z,2.80
2022-11-23T16:01:24.308Z,2.90
2022-11-23T16:03:55.763Z,2.80
2022-11-23T16:06:32.530Z,2.80
2022-11-23T16:09:17.402Z,2.80
2022-11-23T16:11:53.621Z,2.80
2022-11-23T16:14:31.900Z,2.80
2022-11-23T16:17:18.729Z,2.80
2022-11-23T16:19:50.180Z,2.80
2022-11-23T16:22:30.428Z,2.80
2022-11-23T16:25:08.555Z,2.80
2022-11-23T16:27:38.298Z,2.80
2022-11-23T16:30:08.735Z,2.80
2022-11-23T16:32:38.888Z,2.80
2022-11-23T16:35:18.117Z,2.90
2022-11-23T16:37:47.254Z,2.90
2022-11-23T16:40:16.938Z,2.90
2022-11-23T16:42:47.494Z,2.80
2022-11-23T16:45:16.726Z,2.90
2022-11-23T16:47:55.280Z,2.90
2022-11-23T16:50:25.390Z,2.90
2022-11-23T16:52:54.494Z,2.90
2022-11-23T16:55:23.843Z,3.00
2022-11-23T16:57:52.566Z,3.00
2022-11-23T17:00:23.752Z,3.20
2022-11-23T17:02:54.187Z,3.20
2022-11-23T17:05:24.612Z,3.10
2022-11-23T17:07:53.340Z,3.10
2022-11-23T17:10:22.800Z,3.20
2022-11-23T17:12:54.738Z,3.10
2022-11-23T17:15:25.064Z,2.00
2022-11-23T17:17:58.581Z,3.10
2022-11-23T17:20:27.794Z,3.10
2022-11-23T17:23:00.371Z,3.00
2022-11-23T17:25:30.473Z,3.00
2022-11-23T17:28:01.369Z,3.00
2022-11-23T17:30:30.093Z,3.00
2022-11-23T17:33:01.090Z,3.00
2022-11-23T17:35:33.926Z,2.90
2022-11-23T17:38:06.012Z,2.90
2022-11-23T17:40:35.677Z,2.90
2022-11-23T17:43:04.459Z,2.80
2022-11-23T17:45:34.262Z,2.80
2022-11-23T17:48:05.573Z,2.80
2022-11-23T17:50:34.463Z,2.80
2022-11-23T17:53:03.310Z,2.80
2022-11-23T17:55:32.553Z,2.80
2022-11-23T17:58:01.774Z,2.80
2022-11-23T18:00:32.252Z,2.80
2022-11-23T18:03:01.177Z,2.80
2022-11-23T18:05:31.750Z,2.90
2022-11-23T18:08:00.853Z,2.90
2022-11-23T18:10:29.487Z,2.80
2022-11-23T18:12:59.145Z,2.80
2022-11-23T18:15:30.261Z,2.80
2022-11-23T18:18:04.398Z,2.90
2022-11-23T18:20:35.471Z,2.90
2022-11-23T18:23:04.783Z,2.90
2022-11-23T18:25:33.633Z,2.90
2022-11-23T18:28:02.394Z,2.90
2022-11-23T18:30:31.337Z,2.90
2022-11-23T18:32:59.959Z,2.80
2022-11-23T18:35:28.939Z,2.80
2022-11-23T18:37:59.710Z,2.80
2022-11-23T18:40:28.748Z,2.80
2022-11-23T18:42:58.705Z,2.90
2022-11-23T18:45:28.605Z,2.70
2022-11-23T18:47:57.722Z,2.70
2022-11-23T18:50:26.715Z,2.50
2022-11-23T18:52:55.412Z,2.50
2022-11-23T18:55:26.216Z,2.40
2022-11-23T18:57:55.462Z,2.40
2022-11-23T19:00:24.732Z,2.40
2022-11-23T19:02:54.603Z,2.40
2022-11-23T19:05:24.746Z,2.50
2022-11-23T19:07:53.744Z,2.40
2022-11-23T19:10:22.691Z,2.40
2022-11-23T19:12:53.205Z,2.40
2022-11-23T19:15:21.890Z,2.40
2022-11-23T19:17:51.661Z,2.50
2022-11-23T19:20:23.660Z,2.60
2022-11-23T19:22:52.542Z,2.60
2022-11-23T19:25:22.215Z,2.60
2022-11-23T19:27:53.508Z,2.70
2022-11-23T19:30:22.487Z,2.70
2022-11-23T19:32:51.338Z,2.70
2022-11-23T19:35:19.925Z,2.70
2022-11-23T19:37:49.787Z,2.60
2022-11-23T19:40:18.669Z,1.50
2022-11-23T19:42:47.297Z,2.50
2022-11-23T19:45:17.739Z,2.50
2022-11-23T19:47:46.357Z,2.50
2022-11-23T19:50:15.111Z,2.50
2022-11-23T19:53:10.518Z,2.50
2022-11-23T19:55:32.881Z,2.40
2022-11-23T19:58:01.775Z,2.40
2022-11-23T20:00:32.754Z,2.40
2022-11-23T20:03:02.523Z,2.50
2022-11-23T20:05:31.260Z,2.50
2022-11-23T20:08:01.880Z,2.40
2022-11-23T20:10:30.614Z,2.50
2022-11-23T20:12:59.394Z,2.50
2022-11-23T20:15:28.221Z,2.50
2022-11-23T20:17:58.988Z,2.50
2022-11-23T20:20:31.983Z,2.40
2022-11-23T20:23:00.887Z,2.50
2022-11-23T20:25:30.043Z,2.40
2022-11-23T20:27:58.943Z,2.40
2022-11-23T20:30:27.772Z,2.40
2022-11-23T20:32:56.392Z,2.50
2022-11-23T20:35:26.672Z,2.50
2022-11-23T20:37:55.362Z,2.50
2022-11-23T20:40:24.178Z,2.40
2022-11-23T20:42:52.894Z,2.40
2022-11-23T20:45:21.722Z,2.40
2022-11-23T20:47:53.955Z,2.40
2022-11-23T20:50:25.393Z,2.40
2022-11-23T20:53:00.787Z,2.30
2022-11-23T20:55:32.077Z,2.40
2022-11-23T20:58:00.699Z,2.20
2022-11-23T21:00:29.872Z,2.20
2022-11-23T21:02:58.562Z,2.20
2022-11-23T21:05:27.871Z,2.20
2022-11-23T21:07:57.824Z,2.20
2022-11-23T21:10:44.038Z,2.20
2022-11-23T21:13:48.648Z,2.20
2022-11-23T21:16:18.203Z,2.20
2022-11-23T21:18:47.016Z,2.20
2022-11-23T21:21:15.908Z,2.20
2022-11-23T21:23:50.948Z,2.20
2022-11-23T21:26:21.603Z,2.10
2022-11-23T21:28:50.153Z,2.10
2022-11-23T21:31:19.081Z,2.10
2022-11-23T21:33:52.382Z,2.10
2022-11-23T21:36:23.788Z,2.10
2022-11-23T21:38:54.264Z,2.10
2022-11-23T21:41:23.282Z,2.10
2022-11-23T21:43:55.424Z,2.10
2022-11-23T21:46:24.714Z,2.10
2022-11-23T21:48:55.135Z,2.10
2022-11-23T21:51:26.813Z,2.00
2022-11-23T21:53:57.706Z,2.10
2022-11-23T21:56:28.163Z,2.10
2022-11-23T21:58:57.447Z,2.20
2022-11-23T22:01:29.546Z,2.10
2022-11-23T22:04:01.557Z,2.00
2022-11-23T22:06:30.524Z,2.00
2022-11-23T22:09:00.985Z,1.90
2022-11-23T22:11:31.642Z,1.90
2022-11-23T22:14:02.195Z,1.90
2022-11-23T22:16:33.089Z,1.90
2022-11-23T22:19:02.450Z,1.90
2022-11-23T22:21:36.867Z,1.90
2022-11-23T22:24:09.095Z,2.00
2022-11-23T22:26:38.046Z,2.00
2022-11-23T22:29:07.265Z,2.10
2022-11-23T22:31:36.982Z,2.10
2022-11-23T22:34:08.778Z,2.10
2022-11-23T22:36:37.598Z,2.10
2022-11-23T22:39:09.054Z,2.10
2022-11-23T22:41:38.999Z,2.00
2022-11-23T22:44:10.255Z,2.00
2022-11-23T22:46:40.288Z,2.00
2022-11-23T22:49:09.116Z,2.00
2022-11-23T22:51:37.983Z,1.90
2022-11-23T22:54:08.472Z,1.90
2022-11-23T22:56:39.141Z,1.90
2022-11-23T22:59:08.245Z,1.90
2022-11-23T23:01:36.842Z,1.90
2022-11-23T23:04:05.754Z,2.00
2022-11-23T23:06:35.956Z,2.00
2022-11-23T23:09:09.337Z,2.00
2022-11-23T23:11:39.142Z,2.20
2022-11-23T23:14:11.315Z,2.10
2022-11-23T23:16:40.410Z,2.10
2022-11-23T23:19:09.655Z,2.00
2022-11-23T23:21:38.531Z,2.10
2022-11-23T23:24:10.587Z,2.10
2022-11-23T23:26:39.580Z,2.20
2022-11-23T23:29:08.312Z,2.20
2022-11-23T23:31:37.964Z,2.30
2022-11-23T23:34:07.167Z,2.20
2022-11-23T23:36:37.561Z,2.00
2022-11-23T23:39:08.710Z,2.00
2022-11-23T23:41:37.318Z,2.00
2022-11-23T23:44:06.430Z,2.00
2022-11-23T23:46:35.232Z,2.00
2022-11-23T23:49:04.341Z,2.10
2022-11-23T23:51:33.062Z,2.10
2022-11-23T23:54:02.007Z,2.10
2022-11-23T23:56:32.343Z,2.10
2022-11-23T23:59:01.246Z,2.10
